Pagina principale
METAR-TAF:

METAR-TAF

Aeroporti :

Gibuti, Gibuti

latitudine: 11-33N, longitudine: 043-10E, altezza: 49 m

Osservazione

Il bollettino è stato emesso 3 ore e 54 minuti fa, alle 15:00 UTC
Vento 12 kt da est/sud-est
Temperature 36°C
Umidità 45%
Pressione 1001 hPa
Visibilità 10 km o più
Poco nuvoloso ad un'altezza di 2300 ft

METAR: HDAM 251500Z 12012KT 9999 FEW023 36/22 Q1001

Ora: 21:54 (18:54 UTC)

Previsione

Il bollettino è stato emesso 1 ora e 54 minuti fa, alle 17:00 UTC
Previsione valida dal 25 alle 18 UTC al 26 alle 18 UTC
Vento 3 kt da direzioni variabili
Visibilità 10 km o più
nessuna nube inferiore a 1500 m e nessun cumulonembo
Evoluzione graduale
dal 26 alle 00 UTC al 26 alle 06 UTC
Vento kt da nord
Evoluzione graduale
dal 26 alle 06 UTC al 26 alle 12 UTC
Vento 10 kt da est
Visibilità 10 km o più
Poco nuvoloso ad un'altezza di 2300 ft

TAF: HDAM 251700Z 2518/2618 VRB03KT CAVOK BECMG 2600/2606 00000KT BECMG 2606/2612 08010KT 9999 FEW023

Osservazioni e previsioni meteorologiche di più di 4000 aeroporti (messaggi METAR e TAF).

Le stazioni disponibili sono rappresentate dai dischi gialli e rossi sulla carta.

Puntare il mouse per vedere il nome della stazione.

Clicca sopra per visualizzare le osservazioni e previsioni meteorologiche.

Per cambiare la mappa : fare clic sui pulsanti verdi con una croce nera per ingrandire, il pulsante verde con un trattino per diminuire, o sulla freccia verde per le mappe adiacenti.


METAR-TAF: